Baldwin, ND (58521)

9:13 AM CDT on September 02, 2015 (GMT -0500)
Rural North Bismarck, Harvest Grove Subdivsion | | Change Station
CLOSE
Current Station
Personal Weather Station
Location: Bismarck, ND
Elevation: 1900 ft
Nearby Weather Stations

Elev 1900 ft 46.90 °N, 100.78 °W | Updated 14 seconds ago

Partly Cloudy
Partly Cloudy
66.9 °F
Feels Like 66.9 °F
N
3.0
Wind Variable Wind from SE
Gusts 5.0 mph

Today
High -- | Low -- °F
--% Chance of Precip.
Yesterday
High -- | Low -- °F
Precip. -- in
7:03 AM 8:21 PM
Waning Gibbous, 80% visible
Pressure 29.80 in
Visibility 0.2 miles
Clouds
Dew Point 66 °F
Humidity 96%
Rainfall 0.00 in
Snow Depth Not available.
UV 1.1 out of 12
Pollen 10.80 out of 12
Air Quality Not available.
Flu Activity Not available.
METAR KBIS 021352Z 09004KT 1/4SM R31/1600V2000FT FG VV002 17/17 A2982 RMK AO2 SLP089 T01670167
Pressure 29.80 in
Visibility 0.2 miles
Clouds
Dew Point 66 °F
Humidity 96%
Rainfall 0.00 in
Snow Depth Not available.
UV 1.1 out of 12
Pollen 10.80 out of 12
Air Quality Not available.
Flu Activity Not available.
METAR KBIS 021352Z 09004KT 1/4SM R31/1600V2000FT FG VV002 17/17 A2982 RMK AO2 SLP089 T01670167
Nowcast | as of 8:29 am CDT on September 2, 2015

Patchy fog was reported over central North Dakota this Wednesday morning. The fog was most dense in the river valleys...particularly The Knife...the lower Souris...Missouri and James River valleys. Visibilities at times will be around one quarter mile. The fog will quickly lift as temperatures rise this morning.

×

10-Day Weather Forecast

×

Almanac

Astronomy

Sep. 02, 2015 Rise Set
Actual Time
Civil Twilight
Nautical Twilight
Astronomical Twilight
Moon
Length of Visible Light
Length of Day
Tomorrow will be .
, % of the Moon is Illuminated

Today's Extremes

State Highs State Lows

Community

WunderPhotos

Upload Photos

1,851,758 photos uploaded!

WunderBlogs® & News

Nearby

Air Quality

  Air Quality AQ Index Pollutant
Not available.

Snow Depth

Station Depth Elevation

Earthquake Activity

City Distance Mag. Time & Date
Minimum magnitude displayed is 2.5.

Coastal Water Temperatures

Place Temperature

Stations

Nearby Weather Stations

Station Location Temp. Windchill Dew Point Humidity Wind Precip. Elev Updated Type